createdAt,value
2019-06-01T00:04:34.027Z,101063.61
2019-06-01T00:09:36.128Z,101059.30
2019-06-01T00:14:39.588Z,101048.38
2019-06-01T00:19:44.034Z,101047.55
2019-06-01T00:24:46.338Z,101054.05
2019-06-01T00:29:49.506Z,101055.58
2019-06-01T00:34:52.053Z,101043.55
2019-06-01T00:39:54.329Z,101050.55
2019-06-01T00:44:56.785Z,101044.05
2019-06-01T00:49:58.938Z,101049.63
2019-06-01T00:55:01.309Z,101048.98
2019-06-01T01:00:04.054Z,101049.12
2019-06-01T01:05:10.627Z,101049.62
2019-06-01T01:10:12.966Z,101049.28
2019-06-01T01:15:15.176Z,101043.66
2019-06-01T01:20:17.212Z,101049.86
2019-06-01T01:25:20.471Z,101048.45
2019-06-01T01:30:22.772Z,101054.42
2019-06-01T01:35:24.932Z,101053.68
2019-06-01T01:40:27.684Z,101052.49
2019-06-01T01:45:29.856Z,101057.89
2019-06-01T01:50:31.863Z,101061.16
2019-06-01T01:55:33.901Z,101056.58
2019-06-01T02:00:41.741Z,101054.88
2019-06-01T02:05:43.966Z,101055.48
2019-06-01T02:10:46.195Z,101059.75
2019-06-01T02:15:48.149Z,101058.34
2019-06-01T02:20:50.098Z,101057.14
2019-06-01T02:25:52.942Z,101053.53
2019-06-01T02:30:56.148Z,101054.69
2019-06-01T02:36:00.675Z,101049.92
2019-06-01T02:41:03.383Z,101037.56
2019-06-01T02:46:07.640Z,101049.06
2019-06-01T02:51:09.848Z,101038.42
2019-06-01T02:56:11.865Z,101047.74
2019-06-01T03:01:35.253Z,101046.39
2019-06-01T03:06:41.506Z,101044.66
2019-06-01T03:11:46.949Z,101035.32
2019-06-01T03:16:51.507Z,101043.22
2019-06-01T03:21:57.170Z,101041.70
2019-06-01T03:27:02.983Z,101042.09
2019-06-01T03:32:24.244Z,101042.09
2019-06-01T03:37:09.563Z,101033.89
2019-06-01T03:42:11.816Z,101034.09
2019-06-01T03:47:14.079Z,101039.32
2019-06-01T03:52:16.256Z,101030.48
2019-06-01T03:57:18.441Z,101034.67
2019-06-01T04:02:32.497Z,101035.89
2019-06-01T04:07:24.546Z,101040.70
2019-06-01T04:12:26.643Z,101039.59
2019-06-01T04:17:28.598Z,101046.20
2019-06-01T04:22:30.570Z,101051.94
2019-06-01T04:27:32.646Z,101051.03
2019-06-01T04:32:48.814Z,101061.59
2019-06-01T04:37:39.708Z,101065.13
2019-06-01T04:42:41.639Z,101075.34
2019-06-01T04:47:43.623Z,101070.19
2019-06-01T04:52:45.734Z,101067.19
2019-06-01T04:57:48.061Z,101073.34
2019-06-01T05:03:04.418Z,101080.64
2019-06-01T05:07:53.940Z,101081.17
2019-06-01T05:12:55.860Z,101076.22
2019-06-01T05:17:57.945Z,101075.56
2019-06-01T05:22:59.967Z,101088.05
2019-06-01T05:28:02.150Z,101076.50
2019-06-01T05:33:18.522Z,101079.64
2019-06-01T05:38:08.250Z,101082.69
2019-06-01T05:43:14.071Z,101081.09
2019-06-01T05:48:22.925Z,101080.39
2019-06-01T05:53:19.952Z,101081.56
2019-06-01T05:58:22.259Z,101079.97
2019-06-01T06:03:39.512Z,101082.28
2019-06-01T06:08:28.171Z,101082.52
2019-06-01T06:13:30.143Z,101084.98
2019-06-01T06:18:32.787Z,101094.33
2019-06-01T06:23:34.790Z,101083.27
2019-06-01T06:28:36.964Z,101081.03
2019-06-01T06:33:38.932Z,101085.20
2019-06-01T06:38:41.068Z,101090.65
2019-06-01T06:43:43.022Z,101088.25
2019-06-01T06:48:45.283Z,101087.89
2019-06-01T06:53:47.587Z,101090.28
2019-06-01T06:58:49.646Z,101090.16
2019-06-01T07:03:51.590Z,101089.38
2019-06-01T07:08:53.698Z,101099.73
2019-06-01T07:13:55.633Z,101099.48
2019-06-01T07:18:57.696Z,101088.95
2019-06-01T07:24:01.494Z,101086.16
2019-06-01T07:29:03.748Z,101093.66
2019-06-01T07:34:05.770Z,101088.95
2019-06-01T07:39:07.832Z,101090.80
2019-06-01T07:44:09.802Z,101091.84
2019-06-01T07:49:11.943Z,101095.70
2019-06-01T07:54:13.992Z,101098.34
2019-06-01T07:59:16.217Z,101095.00
2019-06-01T08:04:18.171Z,101095.14
2019-06-01T08:09:22.142Z,101097.43
2019-06-01T08:14:24.526Z,101093.59
2019-06-01T08:19:27.951Z,101087.50
2019-06-01T08:24:30.333Z,101086.16
2019-06-01T08:29:32.909Z,101089.91
2019-06-01T08:34:34.959Z,101077.91
2019-06-01T08:39:36.994Z,101082.67
2019-06-01T08:44:38.987Z,101072.55
2019-06-01T08:49:41.024Z,101063.63
2019-06-01T08:54:43.182Z,101070.23
2019-06-01T08:59:45.238Z,101060.16
2019-06-01T09:04:47.260Z,101062.63
2019-06-01T09:09:50.626Z,101046.63
2019-06-01T09:14:52.552Z,101041.52
2019-06-01T09:19:54.570Z,101028.73
2019-06-01T09:24:56.604Z,101024.98
2019-06-01T09:29:58.879Z,101034.98
2019-06-01T09:35:00.811Z,101019.19
2019-06-01T09:40:03.424Z,101032.27
2019-06-01T09:45:05.861Z,101022.16
2019-06-01T09:50:07.974Z,101016.53
2019-06-01T09:55:10.338Z,101029.95
2019-06-01T10:00:13.288Z,101023.10
2019-06-01T10:05:15.456Z,101019.73
2019-06-01T10:10:19.091Z,101007.30
2019-06-01T10:15:21.137Z,101012.19
2019-06-01T10:20:23.130Z,101010.88
2019-06-01T10:25:25.192Z,101016.36
2019-06-01T10:30:27.506Z,101009.45
2019-06-01T10:35:30.730Z,101007.72
2019-06-01T10:40:33.413Z,101002.81
2019-06-01T10:45:35.782Z,100995.69
2019-06-01T10:50:38.443Z,100996.05
2019-06-01T10:55:40.612Z,100993.02
2019-06-01T11:00:50.235Z,100983.55
2019-06-01T11:05:46.751Z,100971.27
2019-06-01T11:10:48.815Z,100975.37
2019-06-01T11:15:50.771Z,100972.61
2019-06-01T11:20:52.794Z,100971.77
2019-06-01T11:25:54.715Z,100951.39
2019-06-01T11:30:56.799Z,100953.86
2019-06-01T11:35:58.721Z,100952.60
2019-06-01T11:41:00.753Z,100937.53
2019-06-01T11:46:03.287Z,100935.97
2019-06-01T11:51:05.442Z,100931.84
2019-06-01T11:56:07.547Z,100931.73
2019-06-01T12:01:09.811Z,100928.85
2019-06-01T12:06:11.822Z,100923.83
2019-06-01T12:11:13.870Z,100913.44
2019-06-01T12:16:15.860Z,100911.59
2019-06-01T12:21:17.835Z,100907.78
2019-06-01T12:26:19.842Z,100910.52
2019-06-01T12:31:21.926Z,100894.38
2019-06-01T12:36:24.982Z,100882.80
2019-06-01T12:41:27.053Z,100882.34
2019-06-01T12:46:28.995Z,100876.09
2019-06-01T12:51:31.024Z,100864.25
2019-06-01T12:56:33.228Z,100878.05
2019-06-01T13:01:35.479Z,100858.66
2019-06-01T13:06:37.449Z,100851.00
2019-06-01T13:11:39.577Z,100853.22
2019-06-01T13:16:46.310Z,100842.46
2019-06-01T13:21:45.632Z,100835.56
2019-06-01T13:26:47.936Z,100832.57
2019-06-01T13:31:50.508Z,100820.03
2019-06-01T13:36:53.051Z,100810.98
2019-06-01T13:41:55.162Z,100817.43
2019-06-01T13:46:57.445Z,100802.51
2019-06-01T13:51:59.470Z,100805.34
2019-06-01T13:57:02.774Z,100797.64
2019-06-01T14:02:04.991Z,100791.86
2019-06-01T14:07:07.112Z,100791.31
2019-06-01T14:12:09.136Z,100786.61
2019-06-01T14:17:11.064Z,100788.28
2019-06-01T14:22:13.046Z,100781.64
2019-06-01T14:27:14.955Z,100791.33
2019-06-01T14:32:16.974Z,100783.29
2019-06-01T14:37:19.005Z,100776.11
2019-06-01T14:42:20.959Z,100773.08
2019-06-01T14:47:22.985Z,100766.14
2019-06-01T14:52:24.957Z,100769.48
2019-06-01T14:57:27.016Z,100766.16
2019-06-01T15:02:29.189Z,100756.75
2019-06-01T15:07:31.168Z,100754.28
2019-06-01T15:12:33.116Z,100750.11
2019-06-01T15:17:35.255Z,100752.59
2019-06-01T15:22:37.335Z,100754.27
2019-06-01T15:27:39.387Z,100746.53
2019-06-01T15:32:41.426Z,100739.09
2019-06-01T15:37:43.355Z,100736.88
2019-06-01T15:42:45.420Z,100736.03
2019-06-01T15:47:47.942Z,100726.06
2019-06-01T15:52:50.085Z,100726.38
2019-06-01T15:57:52.412Z,100720.80
2019-06-01T16:02:54.827Z,100716.09
2019-06-01T16:07:57.143Z,100708.66
2019-06-01T16:12:59.613Z,100710.31
2019-06-01T16:18:02.107Z,100710.01
2019-06-01T16:23:05.219Z,100704.23
2019-06-01T16:28:07.343Z,100708.93
2019-06-01T16:33:09.446Z,100702.30
2019-06-01T16:38:11.394Z,100705.61
2019-06-01T16:43:13.497Z,100708.67
2019-06-01T16:48:15.538Z,100709.23
2019-06-01T16:53:17.649Z,100700.91
2019-06-01T16:58:19.695Z,100708.11
2019-06-01T17:03:21.812Z,100704.23
2019-06-01T17:08:24.476Z,100695.94
2019-06-01T17:13:27.439Z,100698.98
2019-06-01T17:18:29.384Z,100691.54
2019-06-01T17:23:33.241Z,100698.17
2019-06-01T17:28:35.373Z,100687.38
2019-06-01T17:33:37.543Z,100696.23
2019-06-01T17:38:40.200Z,100695.13
2019-06-01T17:43:42.180Z,100695.13
2019-06-01T17:48:44.220Z,100693.74
2019-06-01T17:53:46.358Z,100690.16
2019-06-01T17:58:48.354Z,100687.06
2019-06-01T18:03:50.403Z,100677.92
2019-06-01T18:08:52.423Z,100680.41
2019-06-01T18:13:54.593Z,100680.10
2019-06-01T18:18:56.850Z,100684.77
2019-06-01T18:24:02.610Z,100675.55
2019-06-01T18:29:03.109Z,100681.31
2019-06-01T18:34:05.501Z,100682.66
2019-06-01T18:39:07.789Z,100681.22
2019-06-01T18:44:09.867Z,100679.78
2019-06-01T18:49:12.016Z,100681.39
2019-06-01T18:54:15.201Z,100687.33
2019-06-01T18:59:17.424Z,100683.34
2019-06-01T19:04:20.559Z,100690.66
2019-06-01T19:09:22.476Z,100693.86
2019-06-01T19:14:24.795Z,100708.38
2019-06-01T19:19:26.698Z,100703.62
2019-06-01T19:24:28.808Z,100712.34
2019-06-01T19:29:30.805Z,100712.41
2019-06-01T19:34:33.058Z,100718.45
2019-06-01T19:39:36.100Z,100731.00
2019-06-01T19:44:38.070Z,100728.21
2019-06-01T19:49:43.668Z,100724.25
2019-06-01T19:54:44.109Z,100738.20
2019-06-01T19:59:46.453Z,100730.41
2019-06-01T20:04:48.646Z,100738.75
2019-06-01T20:09:50.619Z,100736.67
2019-06-01T20:14:52.590Z,100743.77
2019-06-01T20:19:54.531Z,100748.75
2019-06-01T20:24:56.555Z,100748.70
2019-06-01T20:29:58.465Z,100749.52
2019-06-01T20:35:07.355Z,100760.00
2019-06-01T20:40:12.193Z,100764.11
2019-06-01T20:45:14.870Z,100761.11
2019-06-01T20:50:17.014Z,100764.48
2019-06-01T20:55:19.304Z,100755.20
2019-06-01T21:00:21.760Z,100759.63
2019-06-01T21:05:24.684Z,100758.11
2019-06-01T21:10:26.681Z,100749.13
2019-06-01T21:15:28.787Z,100748.26
2019-06-01T21:20:31.719Z,100749.83
2019-06-01T21:25:35.090Z,100746.73
2019-06-01T21:30:37.201Z,100743.20
2019-06-01T21:35:39.410Z,100739.76
2019-06-01T21:40:41.525Z,100746.73
2019-06-01T21:45:44.272Z,100742.62
2019-06-01T21:50:46.321Z,100751.03
2019-06-01T21:55:48.335Z,100742.09
2019-06-01T22:00:50.301Z,100746.39
2019-06-01T22:09:56.183Z,100748.42
2019-06-01T22:14:58.230Z,100743.28
2019-06-01T22:20:00.221Z,100746.80
2019-06-01T22:25:02.448Z,100750.97
2019-06-01T22:30:06.266Z,100748.77
2019-06-01T22:35:08.491Z,100753.03
2019-06-01T22:40:10.906Z,100748.75
2019-06-01T22:45:13.606Z,100748.94
2019-06-01T22:50:15.757Z,100746.23
2019-06-01T22:55:17.973Z,100742.24
2019-06-01T23:00:21.415Z,100739.59
2019-06-01T23:05:24.931Z,100734.73
2019-06-01T23:10:31.440Z,100733.78
2019-06-01T23:15:31.976Z,100738.42
2019-06-01T23:20:34.134Z,100735.54
2019-06-01T23:25:36.089Z,100730.62
2019-06-01T23:30:38.114Z,100722.30
2019-06-01T23:35:40.000Z,100714.80
2019-06-01T23:40:43.029Z,100720.64
2019-06-01T23:45:44.960Z,100715.13
2019-06-01T23:50:46.948Z,100734.17
2019-06-01T23:55:48.995Z,100732.81
